createdAt,value
2023-10-09T00:02:11.368Z,2.23
2023-10-09T00:04:43.557Z,2.40
2023-10-09T00:07:14.321Z,2.60
2023-10-09T00:09:48.576Z,2.07
2023-10-09T00:12:17.520Z,2.60
2023-10-09T00:14:49.571Z,2.70
2023-10-09T00:17:22.880Z,2.40
2023-10-09T00:19:52.990Z,2.40
2023-10-09T00:22:29.723Z,2.97
2023-10-09T00:25:12.514Z,3.33
2023-10-09T00:27:43.870Z,3.10
2023-10-09T00:30:16.360Z,3.63
2023-10-09T00:32:46.457Z,3.13
2023-10-09T00:35:30.991Z,3.03
2023-10-09T00:38:08.406Z,3.00
2023-10-09T00:40:38.804Z,3.03
2023-10-09T00:43:13.242Z,3.50
2023-10-09T00:45:41.468Z,2.87
2023-10-09T00:48:11.287Z,3.17
2023-10-09T00:50:40.338Z,3.20
2023-10-09T00:53:12.932Z,3.17
2023-10-09T00:55:46.330Z,3.60
2023-10-09T00:58:15.190Z,3.43
2023-10-09T01:00:48.035Z,3.70
2023-10-09T01:03:21.482Z,4.10
2023-10-09T01:05:57.821Z,4.30
2023-10-09T01:08:31.413Z,4.33
2023-10-09T01:11:00.480Z,4.13
2023-10-09T01:13:40.209Z,5.13
2023-10-09T01:16:13.968Z,3.93
2023-10-09T01:18:44.248Z,4.73
2023-10-09T01:21:14.432Z,4.13
2023-10-09T01:24:04.332Z,4.27
2023-10-09T01:26:40.337Z,4.50
2023-10-09T01:29:11.676Z,4.60
2023-10-09T01:31:45.148Z,4.00
2023-10-09T01:34:14.817Z,4.03
2023-10-09T01:36:43.264Z,4.13
2023-10-09T01:39:24.462Z,4.07
2023-10-09T01:41:58.913Z,4.23
2023-10-09T01:44:28.950Z,4.27
2023-10-09T01:46:59.103Z,4.17
2023-10-09T01:49:32.769Z,4.40
2023-10-09T01:52:09.110Z,4.43
2023-10-09T01:54:39.717Z,3.87
2023-10-09T01:57:13.262Z,4.03
2023-10-09T01:59:44.867Z,4.20
2023-10-09T02:02:26.821Z,4.93
2023-10-09T02:05:04.957Z,4.47
2023-10-09T02:07:41.756Z,5.07
2023-10-09T02:10:22.776Z,4.30
2023-10-09T02:12:53.541Z,4.40
2023-10-09T02:15:41.292Z,5.00
2023-10-09T02:18:19.661Z,4.10
2023-10-09T02:20:49.057Z,4.80
2023-10-09T02:23:18.481Z,4.50
2023-10-09T02:25:48.503Z,4.53
2023-10-09T02:28:18.908Z,4.33
2023-10-09T02:30:48.691Z,4.50
2023-10-09T02:33:20.071Z,4.50
2023-10-09T02:35:52.564Z,4.20
2023-10-09T02:38:24.408Z,4.50
2023-10-09T02:41:11.234Z,4.77
2023-10-09T02:43:46.014Z,4.93
2023-10-09T02:46:18.954Z,4.40
2023-10-09T02:48:52.016Z,5.47
2023-10-09T02:51:37.931Z,5.33
2023-10-09T02:54:20.450Z,5.50
2023-10-09T02:56:56.986Z,5.10
2023-10-09T02:59:25.332Z,5.50
2023-10-09T03:01:54.210Z,5.30
2023-10-09T03:04:25.601Z,4.90
2023-10-09T03:06:54.494Z,5.83
2023-10-09T03:09:27.857Z,4.80
2023-10-09T03:12:03.262Z,4.67
2023-10-09T03:14:32.282Z,5.00
2023-10-09T03:17:00.247Z,5.40
2023-10-09T03:19:29.445Z,5.53
2023-10-09T03:21:58.557Z,5.50
2023-10-09T03:24:28.658Z,5.87
2023-10-09T03:26:58.401Z,5.10
2023-10-09T03:29:26.579Z,5.33
2023-10-09T03:31:56.767Z,5.27
2023-10-09T03:34:25.354Z,6.20
2023-10-09T03:37:05.191Z,5.40
2023-10-09T03:39:40.263Z,6.63
2023-10-09T03:42:13.032Z,5.70
2023-10-09T03:44:44.629Z,6.40
2023-10-09T03:47:13.174Z,6.23
2023-10-09T03:49:41.082Z,6.40
2023-10-09T03:52:09.859Z,6.60
2023-10-09T03:54:39.813Z,5.93
2023-10-09T03:57:09.429Z,6.40
2023-10-09T03:59:38.668Z,7.37
2023-10-09T04:02:06.343Z,5.73
2023-10-09T04:04:34.957Z,6.57
2023-10-09T04:07:02.897Z,5.83
2023-10-09T04:09:40.665Z,6.43
2023-10-09T04:12:23.310Z,5.73
2023-10-09T04:14:55.812Z,5.43
2023-10-09T04:17:36.470Z,6.63
2023-10-09T04:20:47.241Z,6.23
2023-10-09T04:23:17.511Z,6.33
2023-10-09T04:25:46.764Z,6.40
2023-10-09T04:28:21.315Z,6.77
2023-10-09T04:30:54.982Z,6.20
2023-10-09T04:33:43.773Z,5.83
2023-10-09T04:36:23.062Z,6.53
2023-10-09T04:39:23.742Z,6.77
2023-10-09T04:41:55.038Z,6.40
2023-10-09T04:44:37.065Z,6.40
2023-10-09T04:47:30.823Z,6.70
2023-10-09T04:50:12.677Z,8.00
2023-10-09T04:52:54.424Z,8.57
2023-10-09T04:55:25.879Z,9.10
2023-10-09T04:58:14.297Z,10.60
2023-10-09T05:01:05.306Z,9.03
2023-10-09T05:03:46.452Z,8.70
2023-10-09T05:06:31.178Z,9.47
2023-10-09T05:09:09.412Z,8.00
2023-10-09T05:11:54.446Z,7.60
2023-10-09T05:14:39.195Z,7.07
2023-10-09T05:17:08.267Z,7.13
2023-10-09T05:19:43.423Z,7.07
2023-10-09T05:22:18.141Z,6.43
2023-10-09T05:24:48.978Z,7.33
2023-10-09T05:27:42.945Z,7.03
2023-10-09T05:30:27.098Z,7.33
2023-10-09T05:33:00.158Z,6.47
2023-10-09T05:35:40.885Z,6.40
2023-10-09T05:38:16.406Z,6.80
2023-10-09T05:40:46.771Z,6.73
2023-10-09T05:43:35.686Z,6.87
2023-10-09T05:46:09.933Z,7.70
2023-10-09T05:48:55.712Z,7.17
2023-10-09T05:51:41.417Z,8.00
2023-10-09T05:54:45.706Z,7.10
2023-10-09T05:57:31.798Z,7.40
2023-10-09T06:00:18.254Z,7.73
2023-10-09T06:03:03.500Z,7.60
2023-10-09T06:05:46.544Z,6.90
2023-10-09T06:08:14.488Z,7.07
2023-10-09T06:10:42.835Z,6.73
2023-10-09T06:13:30.861Z,6.93
2023-10-09T06:16:27.531Z,7.30
2023-10-09T06:19:09.554Z,7.10
2023-10-09T06:22:01.195Z,6.30
2023-10-09T06:24:34.684Z,6.97
2023-10-09T06:27:13.922Z,7.23
2023-10-09T06:29:53.152Z,7.43
2023-10-09T06:32:35.700Z,6.83
2023-10-09T06:35:19.883Z,8.30
2023-10-09T06:38:15.650Z,9.00
2023-10-09T06:41:00.709Z,11.30
2023-10-09T06:43:33.097Z,11.30
2023-10-09T06:46:20.989Z,11.57
2023-10-09T06:48:57.744Z,12.00
2023-10-09T06:51:43.145Z,11.67
2023-10-09T06:54:15.817Z,12.00
2023-10-09T06:57:01.337Z,12.63
2023-10-09T06:59:42.936Z,11.90
2023-10-09T07:02:28.011Z,11.40
2023-10-09T07:04:57.250Z,11.53
2023-10-09T07:07:26.071Z,12.57
2023-10-09T07:10:12.112Z,11.83
2023-10-09T07:12:45.801Z,11.53
2023-10-09T07:15:43.046Z,11.20
2023-10-09T07:18:24.909Z,10.63
2023-10-09T07:21:02.639Z,11.27
2023-10-09T07:23:35.068Z,11.37
2023-10-09T07:26:19.329Z,11.77
2023-10-09T07:28:49.633Z,10.63
2023-10-09T07:31:41.438Z,10.97
2023-10-09T07:34:23.426Z,10.93
2023-10-09T07:36:57.728Z,11.03
2023-10-09T07:39:35.958Z,10.63
2023-10-09T07:42:21.730Z,11.00
2023-10-09T07:44:55.373Z,9.80
2023-10-09T07:47:44.195Z,11.20
2023-10-09T07:50:12.865Z,11.23
2023-10-09T07:52:46.321Z,10.80
2023-10-09T07:55:27.473Z,10.47
2023-10-09T07:57:57.039Z,10.13
2023-10-09T08:01:00.399Z,10.33
2023-10-09T08:03:33.946Z,11.37
2023-10-09T08:06:08.376Z,10.00
2023-10-09T08:09:05.047Z,9.77
2023-10-09T08:11:50.799Z,9.20
2023-10-09T08:14:43.968Z,9.93
2023-10-09T08:17:17.209Z,9.57
2023-10-09T08:19:59.234Z,9.10
2023-10-09T08:22:45.118Z,9.00
2023-10-09T08:25:29.149Z,9.93
2023-10-09T08:27:56.977Z,9.97
2023-10-09T08:30:42.531Z,9.33
2023-10-09T08:36:06.079Z,8.87
2023-10-09T08:38:35.289Z,8.93
2023-10-09T08:41:17.439Z,8.77
2023-10-09T08:43:55.060Z,9.47
2023-10-09T08:46:27.984Z,8.93
2023-10-09T08:48:58.353Z,9.20
2023-10-09T08:51:26.375Z,8.50
2023-10-09T08:53:54.232Z,9.23
2023-10-09T08:56:24.380Z,8.97
2023-10-09T08:58:53.681Z,9.27
2023-10-09T09:01:22.931Z,8.93
2023-10-09T09:03:56.739Z,9.40
2023-10-09T09:06:25.419Z,9.00
2023-10-09T09:09:00.963Z,9.43
2023-10-09T09:11:31.166Z,9.10
2023-10-09T09:14:05.919Z,9.03
2023-10-09T09:16:36.696Z,8.63
2023-10-09T09:19:18.710Z,8.80
2023-10-09T09:21:55.837Z,9.07
2023-10-09T09:24:38.743Z,8.83
2023-10-09T09:27:14.469Z,7.83
2023-10-09T09:29:53.770Z,9.20
2023-10-09T09:32:31.279Z,8.83
2023-10-09T09:35:02.542Z,8.40
2023-10-09T09:37:32.023Z,8.40
2023-10-09T09:40:03.397Z,8.43
2023-10-09T09:42:33.781Z,9.37
2023-10-09T09:45:04.696Z,8.87
2023-10-09T09:47:37.256Z,8.13
2023-10-09T09:50:13.825Z,9.70
2023-10-09T09:52:41.965Z,8.80
2023-10-09T09:55:15.838Z,8.50
2023-10-09T09:57:46.584Z,8.90
2023-10-09T10:00:30.755Z,8.63
2023-10-09T10:03:01.413Z,8.73
2023-10-09T10:05:31.334Z,9.00
2023-10-09T10:08:00.502Z,8.67
2023-10-09T10:10:49.206Z,8.33
2023-10-09T10:13:23.122Z,8.77
2023-10-09T10:16:01.588Z,9.47
2023-10-09T10:18:33.492Z,9.13
2023-10-09T10:21:17.386Z,8.40
2023-10-09T10:23:48.400Z,9.10
2023-10-09T10:26:22.219Z,8.30
2023-10-09T10:29:05.851Z,9.00
2023-10-09T10:31:48.465Z,9.53
2023-10-09T10:34:23.074Z,8.77
2023-10-09T10:36:53.683Z,8.43
2023-10-09T10:39:44.084Z,8.73
2023-10-09T10:42:32.238Z,9.60
2023-10-09T10:45:02.116Z,9.83
2023-10-09T10:47:35.436Z,10.17
2023-10-09T10:50:21.520Z,9.17
2023-10-09T10:52:58.845Z,9.43
2023-10-09T10:55:40.620Z,8.87
2023-10-09T10:58:25.032Z,10.20
2023-10-09T11:01:19.183Z,9.33
2023-10-09T11:04:00.446Z,9.00
2023-10-09T11:06:37.821Z,10.07
2023-10-09T11:09:22.763Z,10.70
2023-10-09T11:11:51.700Z,10.53
2023-10-09T11:14:24.901Z,10.47
2023-10-09T11:16:59.253Z,10.70
2023-10-09T11:19:41.401Z,10.47
2023-10-09T11:22:30.578Z,10.13
2023-10-09T11:25:12.199Z,10.83
2023-10-09T11:27:41.479Z,11.30
2023-10-09T11:30:11.356Z,12.17
2023-10-09T11:32:41.041Z,11.17
2023-10-09T11:35:12.643Z,12.03
2023-10-09T11:37:43.869Z,11.20
2023-10-09T11:40:26.911Z,12.13
2023-10-09T11:42:58.852Z,11.37
2023-10-09T11:45:29.945Z,11.43
2023-10-09T11:47:58.689Z,11.43
2023-10-09T11:50:44.029Z,11.87
2023-10-09T11:53:18.857Z,12.03
2023-10-09T11:55:50.067Z,12.10
2023-10-09T11:58:24.710Z,11.00
2023-10-09T12:00:58.103Z,11.37
2023-10-09T12:03:29.534Z,11.00
2023-10-09T12:06:05.449Z,11.13
2023-10-09T12:08:33.448Z,11.17
2023-10-09T12:11:09.780Z,11.47
2023-10-09T12:13:40.885Z,12.90
2023-10-09T12:16:11.308Z,11.10
2023-10-09T12:18:40.721Z,11.20
2023-10-09T12:21:09.121Z,11.23
2023-10-09T12:23:37.034Z,10.80
2023-10-09T12:26:06.371Z,10.33
2023-10-09T12:28:35.758Z,10.77
2023-10-09T12:31:04.995Z,10.27
2023-10-09T12:33:32.747Z,10.30
2023-10-09T12:36:01.794Z,10.47
2023-10-09T12:38:33.746Z,9.90
2023-10-09T12:41:09.446Z,10.47
2023-10-09T12:43:40.653Z,10.43
2023-10-09T12:46:10.330Z,10.30
2023-10-09T12:48:38.752Z,9.70
2023-10-09T12:51:08.670Z,10.43
2023-10-09T12:53:41.270Z,10.83
2023-10-09T12:56:09.407Z,9.73
2023-10-09T12:58:41.033Z,10.00
2023-10-09T13:01:12.978Z,10.27
2023-10-09T13:03:40.914Z,9.93
2023-10-09T13:06:11.835Z,10.80
2023-10-09T13:08:41.911Z,9.73
2023-10-09T13:11:12.848Z,9.37
2023-10-09T13:13:44.458Z,10.37
2023-10-09T13:16:21.849Z,11.00
2023-10-09T13:18:52.436Z,9.80
2023-10-09T13:21:20.503Z,10.60
2023-10-09T13:23:59.021Z,10.33
2023-10-09T13:26:33.780Z,9.80
2023-10-09T13:29:04.887Z,10.90
2023-10-09T13:31:35.995Z,9.97
2023-10-09T13:34:05.096Z,10.63
2023-10-09T13:36:34.163Z,11.23
2023-10-09T13:39:21.221Z,10.27
2023-10-09T13:41:49.608Z,10.57
2023-10-09T13:44:18.127Z,9.73
2023-10-09T13:46:51.982Z,9.97
2023-10-09T13:49:19.682Z,9.80
2023-10-09T13:51:47.597Z,9.47
2023-10-09T13:54:22.230Z,9.30
2023-10-09T13:56:53.904Z,8.70
2023-10-09T13:59:22.313Z,9.57
2023-10-09T14:01:52.151Z,9.30
2023-10-09T14:04:20.673Z,8.53
2023-10-09T14:06:48.806Z,9.20
2023-10-09T14:09:32.524Z,9.53
2023-10-09T14:12:07.509Z,9.80
2023-10-09T14:14:39.622Z,8.17
2023-10-09T14:17:14.230Z,9.20
2023-10-09T14:19:48.176Z,9.03
2023-10-09T14:22:17.204Z,9.93
2023-10-09T14:24:46.512Z,9.00
2023-10-09T14:27:18.658Z,9.87
2023-10-09T14:29:46.695Z,9.57
2023-10-09T14:32:16.035Z,9.03
2023-10-09T14:34:48.419Z,9.03
2023-10-09T14:37:16.415Z,8.40
2023-10-09T14:39:50.011Z,9.00
2023-10-09T14:42:18.142Z,8.30
2023-10-09T14:44:47.245Z,9.10
2023-10-09T14:47:19.575Z,9.23
2023-10-09T14:49:49.108Z,8.83
2023-10-09T14:52:20.016Z,9.37
2023-10-09T14:54:48.598Z,8.90
2023-10-09T14:57:16.519Z,9.40
2023-10-09T14:59:45.223Z,8.57
2023-10-09T15:02:13.833Z,8.50
2023-10-09T15:04:42.959Z,8.67
2023-10-09T15:07:10.649Z,9.67
2023-10-09T15:09:41.238Z,8.70
2023-10-09T15:12:10.464Z,8.83
2023-10-09T15:14:40.679Z,8.53
2023-10-09T15:17:09.990Z,9.13
2023-10-09T15:19:38.203Z,8.87
2023-10-09T15:22:11.195Z,9.53
2023-10-09T15:24:39.042Z,9.17
2023-10-09T15:27:07.004Z,8.33
2023-10-09T15:29:38.417Z,8.43
2023-10-09T15:32:15.674Z,9.83
2023-10-09T15:34:45.162Z,9.17
2023-10-09T15:37:15.916Z,8.73
2023-10-09T15:39:44.180Z,8.83
2023-10-09T15:42:14.899Z,8.97
2023-10-09T15:44:43.117Z,9.80
2023-10-09T15:47:13.266Z,8.67
2023-10-09T15:49:45.004Z,9.53
2023-10-09T15:52:15.688Z,9.20
2023-10-09T15:54:44.488Z,9.53
2023-10-09T15:57:14.029Z,9.40
2023-10-09T15:59:42.177Z,8.90
2023-10-09T16:02:10.238Z,9.27
2023-10-09T16:04:39.420Z,9.43
2023-10-09T16:07:08.984Z,9.23
2023-10-09T16:09:40.360Z,8.87
2023-10-09T16:12:09.470Z,9.17
2023-10-09T16:14:38.009Z,8.57
2023-10-09T16:17:07.616Z,9.47
2023-10-09T16:19:38.786Z,9.13
2023-10-09T16:22:06.935Z,9.40
2023-10-09T16:24:38.948Z,8.80
2023-10-09T16:27:09.488Z,9.97
2023-10-09T16:29:40.162Z,10.30
2023-10-09T16:32:08.705Z,8.43
2023-10-09T16:34:40.226Z,9.43
2023-10-09T16:37:09.011Z,9.63
2023-10-09T16:39:39.916Z,9.43
2023-10-09T16:42:10.898Z,9.10
2023-10-09T16:44:38.905Z,9.40
2023-10-09T16:47:09.614Z,9.17
2023-10-09T16:49:39.800Z,9.60
2023-10-09T16:52:12.563Z,10.13
2023-10-09T16:54:40.310Z,9.70
2023-10-09T16:57:11.684Z,9.60
2023-10-09T16:59:40.430Z,9.53
2023-10-09T17:02:13.781Z,9.43
2023-10-09T17:04:44.143Z,9.20
2023-10-09T17:07:15.710Z,10.70
2023-10-09T17:09:44.359Z,9.43
2023-10-09T17:12:18.567Z,9.63
2023-10-09T17:14:48.143Z,10.97
2023-10-09T17:17:17.037Z,10.27
2023-10-09T17:19:49.526Z,10.37
2023-10-09T17:22:18.494Z,10.93
2023-10-09T17:24:47.404Z,11.00
2023-10-09T17:27:19.286Z,10.17
2023-10-09T17:29:47.609Z,11.17
2023-10-09T17:32:15.798Z,10.73
2023-10-09T17:34:44.926Z,11.17
2023-10-09T17:37:15.018Z,10.90
2023-10-09T17:39:42.760Z,11.70
2023-10-09T17:42:11.213Z,11.53
2023-10-09T17:44:41.112Z,10.43
2023-10-09T17:47:09.138Z,11.33
2023-10-09T17:49:38.813Z,11.43
2023-10-09T17:52:07.174Z,11.00
2023-10-09T17:54:35.717Z,11.10
2023-10-09T17:57:03.656Z,11.17
2023-10-09T17:59:32.386Z,9.87
2023-10-09T18:02:03.780Z,10.73
2023-10-09T18:04:36.655Z,10.13
2023-10-09T18:07:05.592Z,11.47
2023-10-09T18:09:34.027Z,10.53
2023-10-09T18:12:04.487Z,10.07
2023-10-09T18:14:33.490Z,10.10
2023-10-09T18:17:03.112Z,9.40
2023-10-09T18:19:31.462Z,10.27
2023-10-09T18:22:01.277Z,9.33
2023-10-09T18:24:29.051Z,9.87
2023-10-09T18:26:56.744Z,10.27
2023-10-09T18:29:25.481Z,8.97
2023-10-09T18:31:53.335Z,9.17
2023-10-09T18:34:26.787Z,10.30
2023-10-09T18:36:54.548Z,9.53
2023-10-09T18:39:24.135Z,9.17
2023-10-09T18:41:53.224Z,8.97
2023-10-09T18:44:20.870Z,8.13
2023-10-09T18:46:49.588Z,7.67
2023-10-09T18:49:19.292Z,8.03
2023-10-09T18:51:49.549Z,7.63
2023-10-09T18:54:17.241Z,9.90
2023-10-09T18:56:45.050Z,8.60
2023-10-09T18:59:15.301Z,8.23
2023-10-09T19:01:43.214Z,7.70
2023-10-09T19:04:10.987Z,7.77
2023-10-09T19:06:38.779Z,7.63
2023-10-09T19:09:08.317Z,8.10
2023-10-09T19:11:40.079Z,8.43
2023-10-09T19:14:09.689Z,8.00
2023-10-09T19:16:37.763Z,7.90
2023-10-09T19:19:09.159Z,7.20
2023-10-09T19:21:37.206Z,7.50
2023-10-09T19:24:09.622Z,7.63
2023-10-09T19:26:38.920Z,7.17
2023-10-09T19:29:08.696Z,8.10
2023-10-09T19:31:36.911Z,8.73
2023-10-09T19:34:08.563Z,8.10
2023-10-09T19:36:38.736Z,7.57
2023-10-09T19:39:06.753Z,8.33
2023-10-09T19:41:37.063Z,7.87
2023-10-09T19:44:06.350Z,8.13
2023-10-09T19:46:38.893Z,8.67
2023-10-09T19:49:06.814Z,8.03
2023-10-09T19:51:35.083Z,7.97
2023-10-09T19:54:02.802Z,7.20
2023-10-09T19:56:33.155Z,7.73
2023-10-09T19:59:01.505Z,7.77
2023-10-09T20:01:31.013Z,8.70
2023-10-09T20:03:59.778Z,8.10
2023-10-09T20:06:30.005Z,7.97
2023-10-09T20:08:59.115Z,8.53
2023-10-09T20:11:26.842Z,8.00
2023-10-09T20:13:54.456Z,7.60
2023-10-09T20:16:26.099Z,7.77
2023-10-09T20:18:56.321Z,8.77
2023-10-09T20:21:24.586Z,8.47
2023-10-09T20:23:52.280Z,8.60
2023-10-09T20:26:20.098Z,8.60
2023-10-09T20:28:49.114Z,7.97
2023-10-09T20:31:17.409Z,7.67
2023-10-09T20:33:45.595Z,8.50
2023-10-09T20:36:20.423Z,8.30
2023-10-09T20:38:49.116Z,8.47
2023-10-09T20:41:17.663Z,8.73
2023-10-09T20:43:45.811Z,8.97
2023-10-09T20:46:13.684Z,8.67
2023-10-09T20:48:45.944Z,9.13
2023-10-09T20:51:16.364Z,7.97
2023-10-09T20:53:44.139Z,8.23
2023-10-09T20:56:11.987Z,7.97
2023-10-09T20:58:42.887Z,7.60
2023-10-09T21:01:16.443Z,8.60
2023-10-09T21:03:44.808Z,7.97
2023-10-09T21:06:13.520Z,8.40
2023-10-09T21:08:43.142Z,8.23
2023-10-09T21:11:11.372Z,8.27
2023-10-09T21:13:39.743Z,8.13
2023-10-09T21:16:07.612Z,9.13
2023-10-09T21:18:36.716Z,8.07
2023-10-09T21:21:10.032Z,8.77
2023-10-09T21:23:37.996Z,8.67
2023-10-09T21:26:08.493Z,8.80
2023-10-09T21:28:36.687Z,8.10
2023-10-09T21:31:04.957Z,9.07
2023-10-09T21:33:32.968Z,9.43
2023-10-09T21:36:01.743Z,9.30
2023-10-09T21:38:30.654Z,10.07
2023-10-09T21:40:58.616Z,9.83
2023-10-09T21:43:28.528Z,10.30
2023-10-09T21:45:59.153Z,9.33
2023-10-09T21:48:26.905Z,9.60
2023-10-09T21:50:55.625Z,8.77
2023-10-09T21:53:23.821Z,9.57
2023-10-09T21:55:51.582Z,9.03
2023-10-09T21:58:19.618Z,9.00
2023-10-09T22:00:48.896Z,8.83
2023-10-09T22:03:17.039Z,9.20
2023-10-09T22:05:45.903Z,8.90
2023-10-09T22:08:14.526Z,8.53
2023-10-09T22:10:44.696Z,9.07
2023-10-09T22:13:13.222Z,9.00
2023-10-09T22:15:43.387Z,8.23
2023-10-09T22:18:12.758Z,8.83
2023-10-09T22:20:44.839Z,9.40
2023-10-09T22:23:15.036Z,8.93
2023-10-09T22:25:46.536Z,9.40
2023-10-09T22:28:15.858Z,9.53
2023-10-09T22:30:44.505Z,10.30
2023-10-09T22:33:21.164Z,9.90
2023-10-09T22:35:49.422Z,10.63
2023-10-09T22:38:17.402Z,10.53
2023-10-09T22:40:49.824Z,9.83
2023-10-09T22:43:21.655Z,9.10
2023-10-09T22:45:52.433Z,9.40
2023-10-09T22:48:28.161Z,9.53
2023-10-09T22:51:10.435Z,8.60
2023-10-09T22:53:40.396Z,7.07
2023-10-09T22:56:13.798Z,5.97
2023-10-09T22:58:52.108Z,5.70
2023-10-09T23:01:23.761Z,4.87
2023-10-09T23:04:10.648Z,4.70
2023-10-09T23:06:41.761Z,4.27
2023-10-09T23:09:16.031Z,4.60
2023-10-09T23:11:53.045Z,4.00
2023-10-09T23:14:28.115Z,4.03
2023-10-09T23:17:00.216Z,4.10
2023-10-09T23:22:41.515Z,4.27
2023-10-09T23:25:13.499Z,3.77
2023-10-09T23:27:48.945Z,3.77
2023-10-09T23:30:26.254Z,3.63
2023-10-09T23:33:08.858Z,3.10
2023-10-09T23:35:46.476Z,3.80
2023-10-09T23:38:33.229Z,3.13
2023-10-09T23:41:04.539Z,3.60
2023-10-09T23:43:32.556Z,3.43
2023-10-09T23:45:59.353Z,3.07
2023-10-09T23:48:28.468Z,3.23
2023-10-09T23:50:57.330Z,3.40
2023-10-09T23:53:30.238Z,3.33
2023-10-09T23:56:04.571Z,3.43
2023-10-09T23:58:36.522Z,3.30
